Time;durP1;ratioP1;P1;durP2;ratioP2;P2;SDS_P1;SDS_P2;PMS_P1;PMS_P2;Temp;Humidity;BMP_temperature;BMP_pressure;BME280_temperature;BME280_humidity;BME280_pressure;Samples;Min_cycle;Max_cycle;Signal;HPM_P1;HPM_P2
2022/08/28 00:01:47;;;;;;;33.13;24.30;;;18.00;69.40;;;;;;7362801;19;20089;-68
2022/08/28 00:04:17;;;;;;;33.80;25.55;;;18.00;70.40;;;;;;7363930;19;20625;-68
2022/08/28 00:06:47;;;;;;;34.38;23.98;;;18.00;71.40;;;;;;7362051;19;20007;-68
2022/08/28 00:09:19;;;;;;;35.08;24.92;;;18.00;72.20;;;;;;7362675;19;20007;-68
2022/08/28 00:11:49;;;;;;;32.15;24.08;;;18.00;73.10;;;;;;7365938;19;20070;-69
2022/08/28 00:14:20;;;;;;;33.90;23.75;;;18.00;73.30;;;;;;7394006;19;20022;-67
2022/08/28 00:16:50;;;;;;;35.03;24.35;;;18.00;73.40;;;;;;7366375;19;20089;-67
2022/08/28 00:19:21;;;;;;;36.30;24.40;;;18.10;73.50;;;;;;7368258;19;20196;-67
2022/08/28 00:21:52;;;;;;;35.03;25.00;;;18.10;73.70;;;;;;7370359;19;20078;-67
2022/08/28 00:24:25;;;;;;;34.60;23.67;;;18.10;73.60;;;;;;7371564;19;20089;-67
2022/08/28 00:29:37;;;;;;;35.05;24.42;;;18.10;74.00;;;;;;7390614;19;20497;-67
2022/08/28 00:32:08;;;;;;;32.08;23.60;;;18.10;74.00;;;;;;7369515;19;20010;-67
2022/08/28 00:34:38;;;;;;;32.97;23.98;;;18.20;74.30;;;;;;7369779;19;20007;-66
2022/08/28 00:37:08;;;;;;;32.08;24.55;;;18.20;74.20;;;;;;7368047;19;20102;-67
2022/08/28 00:39:40;;;;;;;33.90;25.73;;;18.20;74.30;;;;;;7367685;19;20006;-67
2022/08/28 00:42:11;;;;;;;34.10;24.98;;;18.20;74.50;;;;;;7369543;19;20014;-66
2022/08/28 00:44:41;;;;;;;30.75;23.25;;;18.30;74.70;;;;;;7392601;19;20171;-66
2022/08/28 00:47:11;;;;;;;32.90;24.67;;;18.20;74.60;;;;;;7364638;19;20090;-67
2022/08/28 00:49:50;;;;;;;32.70;24.05;;;18.30;74.60;;;;;;7366641;19;20014;-66
2022/08/28 00:52:19;;;;;;;35.10;24.10;;;18.20;74.20;;;;;;7369354;19;20526;-67
2022/08/28 00:54:55;;;;;;;32.38;24.00;;;18.20;74.40;;;;;;7370523;19;20017;-66
2022/08/28 00:57:32;;;;;;;31.98;22.60;;;18.30;74.60;;;;;;7366495;19;20007;-66
2022/08/28 01:00:02;;;;;;;34.97;23.45;;;18.30;74.60;;;;;;7366339;19;20078;-66
2022/08/28 01:02:32;;;;;;;31.10;22.23;;;18.20;74.40;;;;;;7392707;19;20089;-68
2022/08/28 01:05:02;;;;;;;34.88;24.50;;;18.20;74.20;;;;;;7369352;19;20584;-67
2022/08/28 01:07:32;;;;;;;31.95;22.52;;;18.20;74.40;;;;;;7366990;19;20466;-67
2022/08/28 01:10:07;;;;;;;34.35;24.38;;;18.20;74.50;;;;;;7365037;19;20363;-66
2022/08/28 01:12:37;;;;;;;33.15;24.55;;;18.20;74.20;;;;;;7370474;19;20082;-66
2022/08/28 01:15:11;;;;;;;35.10;25.08;;;18.10;74.30;;;;;;7369856;19;20014;-66
2022/08/28 01:17:47;;;;;;;37.65;25.88;;;18.10;74.40;;;;;;7387134;19;20021;-67
2022/08/28 01:20:22;;;;;;;45.00;25.20;;;18.10;75.20;;;;;;7364586;19;20066;-67
2022/08/28 01:23:00;;;;;;;35.65;26.58;;;18.10;74.50;;;;;;7369346;19;20109;-67
2022/08/28 01:25:35;;;;;;;38.22;27.23;;;18.10;74.40;;;;;;7368025;19;20019;-67
2022/08/28 01:28:07;;;;;;;36.40;25.52;;;18.00;74.30;;;;;;7364728;19;20014;-67
2022/08/28 01:30:38;;;;;;;39.17;26.15;;;18.00;74.40;;;;;;7365867;19;20474;-67
2022/08/28 01:33:08;;;;;;;39.47;26.52;;;18.00;74.60;;;;;;7369483;19;20018;-67
2022/08/28 01:35:44;;;;;;;42.22;26.27;;;18.00;74.60;;;;;;7389844;19;20022;-67
2022/08/28 01:38:15;;;;;;;;;;;18.00;74.70;;;;;;7365797;19;20027;-67
2022/08/28 01:40:56;;;;;;;42.13;27.25;;;18.00;74.80;;;;;;7367093;19;19915;-66
2022/08/28 01:43:27;;;;;;;40.10;26.73;;;17.90;74.80;;;;;;7367522;19;20077;-67
2022/08/28 01:46:00;;;;;;;40.03;27.70;;;17.90;74.90;;;;;;7368633;19;20108;-66
2022/08/28 01:48:33;;;;;;;41.58;27.27;;;18.00;75.20;;;;;;7363142;19;20013;-67
2022/08/28 01:51:04;;;;;;;40.13;27.52;;;17.90;75.10;;;;;;7366053;19;20015;-66
2022/08/28 01:53:35;;;;;;;45.55;27.60;;;17.90;75.20;;;;;;7390494;19;20014;-67
2022/08/28 01:56:11;;;;;;;46.25;29.10;;;17.90;75.30;;;;;;7367076;19;20014;-67
2022/08/28 01:58:42;;;;;;;45.63;27.73;;;17.90;75.30;;;;;;7365254;19;20357;-67
2022/08/28 02:01:13;;;;;;;51.50;30.13;;;17.90;75.30;;;;;;7367316;19;20036;-67
2022/08/28 02:03:44;;;;;;;56.20;30.73;;;17.90;75.30;;;;;;7368093;19;20024;-67
2022/08/28 02:06:14;;;;;;;50.65;32.92;;;17.90;75.40;;;;;;7363539;19;20444;-67
2022/08/28 02:08:45;;;;;;;53.67;30.48;;;17.90;75.40;;;;;;7382953;19;20417;-68
2022/08/28 02:11:18;;;;;;;53.92;31.05;;;17.90;75.50;;;;;;7386888;19;20018;-67
2022/08/28 02:13:48;;;;;;;52.15;31.80;;;17.90;75.60;;;;;;7367457;19;20432;-67
2022/08/28 02:16:19;;;;;;;48.30;30.48;;;18.00;75.80;;;;;;7364211;19;20509;-67
2022/08/28 02:18:50;;;;;;;51.90;31.83;;;18.00;75.90;;;;;;7365281;19;20006;-67
2022/08/28 02:21:21;;;;;;;57.17;32.53;;;17.90;75.70;;;;;;7367203;19;20030;-67
2022/08/28 02:23:50;;;;;;;56.15;33.40;;;18.00;75.90;;;;;;7367254;19;20109;-68
2022/08/28 02:26:23;;;;;;;53.90;31.92;;;18.00;76.00;;;;;;7385483;19;20094;-67
2022/08/28 02:28:53;;;;;;;48.30;30.42;;;18.00;76.00;;;;;;7364751;19;20022;-67
2022/08/28 02:31:23;;;;;;;48.60;31.08;;;17.90;75.90;;;;;;7364946;19;20081;-67
2022/08/28 02:33:54;;;;;;;52.50;31.55;;;18.00;76.10;;;;;;7366056;19;20010;-67
2022/08/28 02:36:25;;;;;;;55.05;31.90;;;18.00;76.00;;;;;;7364354;19;20030;-67
2022/08/28 02:38:55;;;;;;;53.70;33.13;;;18.00;76.10;;;;;;7362380;19;20470;-67
2022/08/28 02:41:29;;;;;;;48.58;31.70;;;18.00;76.00;;;;;;7386029;19;20014;-67
2022/08/28 02:43:59;;;;;;;50.55;32.88;;;18.00;75.90;;;;;;7367132;19;20082;-67
2022/08/28 02:46:29;;;;;;;53.22;32.90;;;18.00;75.90;;;;;;7363128;19;20114;-67
2022/08/28 02:48:59;;;;;;;59.40;32.92;;;18.00;76.00;;;;;;7363762;19;20039;-67
2022/08/28 02:51:32;;;;;;;56.92;34.08;;;18.00;76.00;;;;;;7363839;19;20010;-67
2022/08/28 02:54:03;;;;;;;54.75;31.65;;;18.00;76.20;;;;;;7367110;19;20678;-67
2022/08/28 02:56:35;;;;;;;61.22;33.95;;;18.00;76.20;;;;;;7383661;19;20078;-67
2022/08/28 02:59:05;;;;;;;56.70;33.67;;;18.00;76.00;;;;;;7363846;19;20034;-67
2022/08/28 03:01:35;;;;;;;62.25;34.28;;;18.00;76.00;;;;;;7363864;19;20093;-67
2022/08/28 03:04:05;;;;;;;50.22;31.75;;;18.00;76.00;;;;;;7366084;19;20018;-67
2022/08/28 03:06:35;;;;;;;53.85;32.25;;;18.10;76.10;;;;;;7362076;19;20018;-66
2022/08/28 03:09:06;;;;;;;50.88;32.83;;;18.00;76.10;;;;;;7363602;19;20003;-67
2022/08/28 03:11:42;;;;;;;52.90;32.53;;;18.10;76.10;;;;;;7385052;19;20018;-68
2022/08/28 03:14:12;;;;;;;55.22;32.05;;;18.10;76.10;;;;;;7365802;19;20512;-68
2022/08/28 03:16:42;;;;;;;51.88;31.48;;;18.00;76.00;;;;;;7360708;19;20070;-67
2022/08/28 03:19:12;;;;;;;53.03;33.20;;;18.10;76.00;;;;;;7363667;19;20014;-68
2022/08/28 03:21:41;;;;;;;50.05;30.95;;;18.00;75.80;;;;;;7363917;19;20452;-67
2022/08/28 03:24:09;;;;;;;56.00;32.45;;;18.00;75.90;;;;;;7365488;19;20462;-68
2022/08/28 03:26:46;;;;;;;51.85;31.40;;;18.00;75.70;;;;;;7383599;19;20019;-66
2022/08/28 03:29:16;;;;;;;53.97;31.50;;;18.00;75.90;;;;;;7363044;19;20509;-66
2022/08/28 03:31:46;;;;;;;49.35;30.60;;;18.00;75.90;;;;;;7361787;19;20078;-66
2022/08/28 03:34:16;;;;;;;46.08;29.98;;;18.00;75.90;;;;;;7364488;19;20078;-67
2022/08/28 03:36:46;;;;;;;51.17;31.27;;;18.00;75.80;;;;;;7361240;19;20081;-66
2022/08/28 03:39:16;;;;;;;44.28;30.40;;;18.10;76.00;;;;;;7362666;19;20010;-68
2022/08/28 03:41:48;;;;;;;47.67;29.35;;;18.10;76.00;;;;;;7367706;19;20026;-68
2022/08/28 03:44:18;;;;;;;49.83;31.50;;;18.10;75.40;;;;;;7387049;19;20015;-67
2022/08/28 03:46:48;;;;;;;46.40;30.10;;;18.10;75.30;;;;;;7357286;19;20053;-67
2022/08/28 03:49:18;;;;;;;46.25;30.00;;;18.10;75.00;;;;;;7362455;19;20078;-67
2022/08/28 03:51:49;;;;;;;46.35;28.40;;;18.10;74.90;;;;;;7361756;19;20467;-67
2022/08/28 03:54:19;;;;;;;46.10;30.33;;;18.00;74.90;;;;;;7364792;19;20584;-67
2022/08/28 03:56:52;;;;;;;45.00;30.30;;;18.00;75.10;;;;;;7361039;19;20010;-67
2022/08/28 03:59:22;;;;;;;44.67;28.30;;;18.00;75.00;;;;;;7384542;19;20519;-67
2022/08/28 04:02:02;;;;;;;43.38;28.27;;;18.00;74.80;;;;;;7361596;19;20097;-67
2022/08/28 04:04:32;;;;;;;44.22;29.27;;;18.10;74.50;;;;;;7362705;19;20006;-66
2022/08/28 04:07:01;;;;;;;43.33;28.85;;;18.10;73.80;;;;;;7360797;19;20010;-66
2022/08/28 04:09:31;;;;;;;41.45;27.63;;;18.00;73.60;;;;;;7361817;19;20027;-67
2022/08/28 04:12:05;;;;;;;40.88;27.48;;;18.00;73.70;;;;;;7362111;19;20397;-66
2022/08/28 04:14:35;;;;;;;46.63;28.23;;;18.00;73.70;;;;;;7385760;19;20017;-66
2022/08/28 04:17:05;;;;;;;45.50;28.63;;;18.00;73.60;;;;;;7358601;19;20015;-67
2022/08/28 04:19:36;;;;;;;43.25;27.25;;;17.90;73.30;;;;;;7360855;19;20023;-67
2022/08/28 04:22:07;;;;;;;45.83;28.10;;;18.00;73.40;;;;;;7362841;19;20013;-67
2022/08/28 04:24:38;;;;;;;44.22;28.20;;;17.90;73.20;;;;;;7363493;19;20018;-67
2022/08/28 04:27:10;;;;;;;39.20;27.23;;;18.00;73.30;;;;;;7360111;19;20015;-67
2022/08/28 04:29:40;;;;;;;43.58;27.38;;;18.00;73.30;;;;;;7383435;19;20086;-67
2022/08/28 04:32:10;;;;;;;49.88;27.55;;;18.00;73.30;;;;;;7359270;19;20035;-67
2022/08/28 04:34:40;;;;;;;44.75;28.83;;;18.00;73.30;;;;;;7363424;19;20006;-67
2022/08/28 04:37:10;;;;;;;41.58;28.05;;;18.00;73.40;;;;;;7360111;19;20090;-67
2022/08/28 04:39:40;;;;;;;40.80;26.10;;;18.00;73.30;;;;;;7361004;19;20101;-67
2022/08/28 04:42:13;;;;;;;43.13;26.33;;;18.00;73.30;;;;;;7362534;19;20490;-67
2022/08/28 04:44:43;;;;;;;36.53;24.80;;;17.90;72.60;;;;;;7384844;19;20018;-67
2022/08/28 04:47:13;;;;;;;39.30;25.15;;;17.90;72.70;;;;;;7358546;19;20002;-67
2022/08/28 04:49:43;;;;;;;35.85;24.45;;;17.90;72.70;;;;;;7360038;19;20018;-67
2022/08/28 04:52:13;;;;;;;37.80;25.23;;;17.90;72.70;;;;;;7360657;19;20014;-67
2022/08/28 04:54:42;;;;;;;37.75;25.35;;;17.90;72.90;;;;;;7363140;19;20023;-67
2022/08/28 04:57:15;;;;;;;32.28;24.50;;;17.90;72.90;;;;;;7361441;19;20029;-67
2022/08/28 04:59:45;;;;;;;39.53;25.00;;;17.90;72.40;;;;;;7380534;19;20031;-67
2022/08/28 05:02:15;;;;;;;38.03;25.10;;;17.90;72.50;;;;;;7391117;19;20022;-67
2022/08/28 05:04:46;;;;;;;34.13;24.70;;;17.90;72.00;;;;;;7368935;19;20401;-67
2022/08/28 05:07:16;;;;;;;34.40;24.70;;;17.90;70.50;;;;;;7366965;19;20018;-67
2022/08/28 05:09:46;;;;;;;41.58;26.52;;;17.90;71.20;;;;;;7366474;19;20216;-67
2022/08/28 05:12:18;;;;;;;38.38;25.52;;;18.00;71.10;;;;;;7368395;19;20010;-67
2022/08/28 05:14:49;;;;;;;34.97;25.00;;;18.00;70.70;;;;;;7369594;19;20022;-67
2022/08/28 05:17:19;;;;;;;38.88;25.25;;;18.00;71.10;;;;;;7386262;19;20014;-66
2022/08/28 05:19:49;;;;;;;37.67;25.73;;;18.00;71.00;;;;;;7366915;19;20068;-67
2022/08/28 05:22:19;;;;;;;38.50;25.60;;;18.00;70.60;;;;;;7368143;19;20007;-66
2022/08/28 05:24:49;;;;;;;34.25;24.95;;;18.00;70.70;;;;;;7369616;19;20035;-67
2022/08/28 05:27:22;;;;;;;39.20;26.60;;;18.00;70.70;;;;;;7364412;19;20512;-67
2022/08/28 05:29:52;;;;;;;44.67;27.73;;;17.90;70.50;;;;;;7365462;19;20007;-66
2022/08/28 05:32:27;;;;;;;41.13;25.48;;;17.90;70.90;;;;;;7390460;19;20085;-67
2022/08/28 05:34:57;;;;;;;34.55;26.33;;;18.00;71.30;;;;;;7369024;19;20030;-67
2022/08/28 05:37:27;;;;;;;35.95;25.33;;;18.00;71.10;;;;;;7365346;19;20014;-67
2022/08/28 05:39:57;;;;;;;38.72;25.52;;;18.10;71.20;;;;;;7366842;19;20428;-66
2022/08/28 05:42:29;;;;;;;35.15;26.48;;;18.10;70.80;;;;;;7369208;19;20011;-68
2022/08/28 05:45:02;;;;;;;36.92;26.20;;;18.10;70.30;;;;;;7369396;19;20011;-66
2022/08/28 05:47:33;;;;;;;35.88;24.45;;;18.10;69.40;;;;;;7385242;19;20038;-66
2022/08/28 05:50:02;;;;;;;35.00;26.55;;;18.10;69.30;;;;;;7364507;19;20478;-66
2022/08/28 05:52:33;;;;;;;36.85;24.08;;;18.20;69.40;;;;;;7369212;19;20014;-67
2022/08/28 05:55:04;;;;;;;32.63;25.08;;;18.10;68.90;;;;;;7369532;19;20011;-67
2022/08/28 05:57:36;;;;;;;36.60;25.08;;;18.20;69.30;;;;;;7364571;19;20011;-67
2022/08/28 06:00:08;;;;;;;33.78;24.17;;;18.20;66.90;;;;;;7364126;19;20086;-67
2022/08/28 06:02:38;;;;;;;32.97;22.60;;;18.20;67.40;;;;;;7390653;19;20014;-67
2022/08/28 06:05:09;;;;;;;28.05;22.60;;;18.20;67.90;;;;;;7368851;19;20014;-67
2022/08/28 06:07:42;;;;;;;31.37;22.70;;;18.20;67.50;;;;;;7363542;19;20405;-67
2022/08/28 06:10:12;;;;;;;28.45;21.90;;;18.20;66.90;;;;;;7361279;19;20276;-66
2022/08/28 06:12:45;;;;;;;29.83;22.50;;;18.20;68.00;;;;;;7368712;19;20037;-67
2022/08/28 06:15:15;;;;;;;35.97;22.27;;;18.30;67.70;;;;;;7369342;19;20478;-67
2022/08/28 06:17:45;;;;;;;26.73;21.05;;;18.20;67.10;;;;;;7374673;19;20476;-68
2022/08/28 06:20:15;;;;;;;28.33;21.52;;;18.40;66.60;;;;;;7384969;19;20090;-67
2022/08/28 06:22:45;;;;;;;27.00;20.85;;;18.30;64.30;;;;;;7367590;19;20196;-67
2022/08/28 06:25:15;;;;;;;29.52;21.05;;;18.30;64.60;;;;;;7368542;19;20014;-67
2022/08/28 06:27:47;;;;;;;28.40;21.33;;;18.50;63.50;;;;;;7363957;19;20011;-67
2022/08/28 06:30:17;;;;;;;27.25;20.08;;;18.50;61.80;;;;;;7362518;19;20208;-67
2022/08/28 06:32:49;;;;;;;26.50;20.17;;;18.50;61.20;;;;;;7367747;19;20505;-67
2022/08/28 06:35:20;;;;;;;26.38;20.42;;;18.60;60.80;;;;;;7390004;19;20098;-65
2022/08/28 06:37:50;;;;;;;27.90;20.95;;;18.60;59.80;;;;;;7363262;19;20013;-67
2022/08/28 06:40:20;;;;;;;28.48;19.75;;;18.70;58.90;;;;;;7362397;19;20109;-67
2022/08/28 06:42:53;;;;;;;26.98;19.30;;;18.70;57.90;;;;;;7367416;19;20035;-67
2022/08/28 06:45:23;;;;;;;24.90;19.17;;;18.60;57.10;;;;;;7367616;19;20006;-65
2022/08/28 06:47:53;;;;;;;24.42;19.15;;;18.50;58.30;;;;;;7361725;19;20018;-67
2022/08/28 06:50:23;;;;;;;27.88;18.75;;;18.60;57.70;;;;;;7383554;19;20014;-67
2022/08/28 06:52:53;;;;;;;26.00;18.85;;;18.70;57.40;;;;;;7365478;19;20072;-67
2022/08/28 06:55:23;;;;;;;27.52;19.50;;;18.60;56.40;;;;;;7367786;19;20014;-67
2022/08/28 06:57:55;;;;;;;21.92;17.58;;;18.70;55.70;;;;;;7363341;19;20097;-67
2022/08/28 07:00:25;;;;;;;26.60;17.75;;;18.80;56.40;;;;;;7363205;19;20089;-67
2022/08/28 07:02:55;;;;;;;24.17;17.98;;;18.80;55.20;;;;;;7366808;19;20085;-67
2022/08/28 07:05:25;;;;;;;22.88;17.67;;;18.90;55.20;;;;;;7388235;19;20089;-67
2022/08/28 07:07:55;;;;;;;20.48;16.60;;;19.00;53.40;;;;;;7362623;19;20482;-67
2022/08/28 07:10:25;;;;;;;24.75;17.20;;;19.00;51.40;;;;;;7362998;19;20098;-67
2022/08/28 07:12:59;;;;;;;18.95;16.00;;;19.00;50.30;;;;;;7366860;19;20010;-67
2022/08/28 07:15:29;;;;;;;25.73;17.92;;;19.10;50.80;;;;;;7364569;19;20003;-67
2022/08/28 07:17:59;;;;;;;21.42;16.33;;;19.10;50.50;;;;;;7362101;19;20006;-67
2022/08/28 07:20:29;;;;;;;19.83;16.13;;;19.00;48.50;;;;;;7381409;19;20011;-67
2022/08/28 07:22:59;;;;;;;21.30;16.60;;;19.00;45.90;;;;;;7365236;19;20006;-67
2022/08/28 07:25:29;;;;;;;24.45;17.67;;;19.00;45.60;;;;;;7365900;19;20410;-67
2022/08/28 07:28:02;;;;;;;20.88;15.73;;;18.90;48.00;;;;;;7361035;19;20120;-67
2022/08/28 07:30:32;;;;;;;20.52;15.23;;;18.90;48.80;;;;;;7362472;19;20070;-67
2022/08/28 07:33:02;;;;;;;18.98;15.48;;;18.90;48.30;;;;;;7365749;19;20007;-67
2022/08/28 07:35:31;;;;;;;22.85;14.90;;;18.90;49.10;;;;;;7386027;19;20014;-66
2022/08/28 07:38:01;;;;;;;18.88;14.77;;;19.10;48.40;;;;;;7360631;19;20017;-67
2022/08/28 07:40:32;;;;;;;21.02;15.75;;;19.20;46.00;;;;;;7361324;19;20014;-67
2022/08/28 07:45:47;;;;;;;15.98;13.27;;;19.40;43.30;;;;;;7365654;19;20049;-67
2022/08/28 07:48:18;;;;;;;17.77;14.40;;;19.40;42.50;;;;;;7360982;19;20014;-67
2022/08/28 07:50:50;;;;;;;18.33;14.02;;;19.50;41.80;;;;;;7362275;19;20060;-67
2022/08/28 07:53:20;;;;;;;18.85;14.32;;;19.60;41.30;;;;;;7387746;19;20017;-67
2022/08/28 07:55:51;;;;;;;16.98;13.63;;;19.40;37.80;;;;;;7364577;19;20023;-67
2022/08/28 07:58:25;;;;;;;23.73;14.57;;;19.70;37.10;;;;;;7358994;19;20085;-66
2022/08/28 08:00:55;;;;;;;16.40;13.90;;;19.70;38.00;;;;;;7363103;19;20432;-67
2022/08/28 08:03:25;;;;;;;18.80;13.20;;;19.70;36.60;;;;;;7365411;19;20021;-66
2022/08/28 08:05:56;;;;;;;17.48;13.65;;;19.80;38.60;;;;;;7365176;19;20018;-67
2022/08/28 08:08:27;;;;;;;19.85;13.30;;;19.90;36.70;;;;;;7380678;19;20021;-68
2022/08/28 08:11:02;;;;;;;15.68;13.30;;;19.90;35.70;;;;;;7362087;19;20533;-66
2022/08/28 08:13:38;;;;;;;17.02;13.52;;;19.90;35.50;;;;;;7364297;19;20071;-67
2022/08/28 08:16:10;;;;;;;15.02;13.05;;;19.90;35.00;;;;;;7362739;19;20018;-68
2022/08/28 08:18:41;;;;;;;18.92;12.80;;;20.00;35.20;;;;;;7361509;19;20010;-66
2022/08/28 08:21:14;;;;;;;14.63;12.85;;;19.80;32.70;;;;;;7363033;19;20082;-66
2022/08/28 08:23:44;;;;;;;21.80;13.17;;;20.00;34.70;;;;;;7384244;19;20481;-67
2022/08/28 08:26:18;;;;;;;20.67;13.75;;;20.20;34.70;;;;;;7382782;19;20093;-66
2022/08/28 08:28:51;;;;;;;17.20;12.93;;;20.20;35.00;;;;;;7361027;19;20011;-66
2022/08/28 08:31:25;;;;;;;17.10;13.30;;;20.30;33.40;;;;;;7362362;19;20488;-66
2022/08/28 08:34:00;;;;;;;16.75;13.73;;;20.30;32.70;;;;;;7370718;19;20003;-67
2022/08/28 08:36:31;;;;;;;17.75;13.18;;;20.60;30.30;;;;;;7367850;19;20085;-67
2022/08/28 08:39:02;;;;;;;15.38;12.93;;;20.60;27.70;;;;;;7368180;19;20042;-67
2022/08/28 08:41:42;;;;;;;15.38;12.07;;;20.80;28.80;;;;;;7390911;19;20020;-67
2022/08/28 08:44:23;;;;;;;13.18;11.10;;;20.80;26.00;;;;;;7370877;19;20014;-67
2022/08/28 08:47:10;;;;;;;18.77;12.88;;;20.70;27.90;;;;;;7365409;19;20021;-67
2022/08/28 08:49:51;;;;;;;16.15;12.02;;;20.80;25.90;;;;;;7366842;19;20498;-66
2022/08/28 08:52:36;;;;;;;15.93;11.82;;;20.80;24.20;;;;;;7370210;19;20010;-66
2022/08/28 08:55:23;;;;;;;17.23;12.55;;;21.00;25.40;;;;;;7369293;19;20611;-66
2022/08/28 08:58:00;;;;;;;16.42;12.63;;;21.10;25.50;;;;;;7365220;19;20352;-67
2022/08/28 09:00:38;;;;;;;16.90;13.05;;;21.20;23.70;;;;;;7367610;19;20531;-67
2022/08/28 09:03:14;;;;;;;17.33;12.63;;;21.40;22.80;;;;;;7370729;19;20031;-67
2022/08/28 09:05:52;;;;;;;15.05;12.18;;;21.30;20.60;;;;;;7387977;19;20019;-66
2022/08/28 09:08:33;;;;;;;16.45;11.80;;;21.30;22.70;;;;;;7386904;19;20007;-68
2022/08/28 09:11:11;;;;;;;18.27;11.80;;;21.50;20.00;;;;;;7367655;19;20026;-67
2022/08/28 09:13:49;;;;;;;14.00;11.70;;;21.80;17.70;;;;;;7366646;19;20060;-67
2022/08/28 09:16:29;;;;;;;15.50;11.55;;;21.90;18.30;;;;;;7366449;19;20105;-67
2022/08/28 09:19:00;;;;;;;15.73;11.05;;;21.90;15.90;;;;;;7367177;19;20014;-67
2022/08/28 09:21:33;;;;;;;14.52;11.23;;;21.50;15.70;;;;;;7368639;19;20082;-67
2022/08/28 09:24:05;;;;;;;14.80;11.38;;;21.80;15.90;;;;;;7369924;19;20069;-67
2022/08/28 09:26:41;;;;;;;15.70;11.02;;;22.00;16.00;;;;;;7386345;19;20014;-67
2022/08/28 09:29:27;;;;;;;13.48;11.13;;;22.30;14.90;;;;;;7366487;19;20486;-67
2022/08/28 09:32:00;;;;;;;13.73;11.32;;;22.60;13.10;;;;;;7366546;19;20066;-67
2022/08/28 09:34:33;;;;;;;15.48;11.98;;;22.10;12.20;;;;;;7368155;19;20120;-67
2022/08/28 09:37:09;;;;;;;16.45;11.70;;;21.70;17.90;;;;;;7365841;19;20012;-67
2022/08/28 09:39:42;;;;;;;13.27;10.73;;;21.90;14.90;;;;;;7367669;19;20025;-67
2022/08/28 09:45:08;;;;;;;13.85;10.82;;;22.00;13.20;;;;;;7369585;19;20012;-67
2022/08/28 09:47:47;;;;;;;15.48;10.38;;;22.40;10.60;;;;;;7385437;19;20017;-67
2022/08/28 09:50:22;;;;;;;12.65;10.98;;;22.40;9.90;;;;;;7363894;19;20009;-66
2022/08/28 09:52:53;;;;;;;13.95;11.20;;;22.50;8.80;;;;;;7369095;19;20002;-66
2022/08/28 09:55:32;;;;;;;16.00;11.52;;;22.20;11.60;;;;;;7366589;19;20081;-67
2022/08/28 09:58:02;;;;;;;14.77;11.40;;;21.70;14.10;;;;;;7363407;19;20019;-67
2022/08/28 10:00:38;;;;;;;14.70;10.88;;;21.70;15.50;;;;;;7365526;19;20028;-67
2022/08/28 10:03:20;;;;;;;12.27;10.77;;;21.50;13.60;;;;;;7369472;19;20017;-66
2022/08/28 10:05:59;;;;;;;15.82;11.68;;;22.00;11.60;;;;;;7368319;19;20022;-67
2022/08/28 10:08:41;;;;;;;16.88;10.98;;;22.20;8.70;;;;;;7383852;19;20022;-66
2022/08/28 10:11:19;;;;;;;13.15;10.88;;;22.00;8.50;;;;;;7363560;19;20920;-67
2022/08/28 10:13:57;;;;;;;11.88;10.60;;;22.50;5.00;;;;;;7367954;19;20018;-66
2022/08/28 10:16:36;;;;;;;13.68;10.65;;;22.60;6.60;;;;;;7364685;19;20031;-66
2022/08/28 10:19:21;;;;;;;12.57;9.82;;;22.40;6.30;;;;;;7367051;19;20014;-66
2022/08/28 10:21:57;;;;;;;12.82;9.35;;;22.20;7.20;;;;;;7366552;19;20052;-66
2022/08/28 10:24:44;;;;;;;15.98;10.32;;;22.30;5.60;;;;;;7367954;19;20014;-67
2022/08/28 10:27:30;;;;;;;13.85;10.65;;;22.00;5.80;;;;;;7363307;19;20013;-67
2022/08/28 10:30:06;;;;;;;15.07;9.93;;;22.50;4.60;;;;;;7364497;19;20018;-67
2022/08/28 10:33:04;;;;;;;10.45;8.77;;;23.60;1.90;;;;;;7389853;19;20011;-67
2022/08/28 10:35:47;;;;;;;13.15;9.05;;;24.20;1.00;;;;;;7366683;19;20346;-67
2022/08/28 10:38:21;;;;;;;10.30;8.93;;;23.50;1.00;;;;;;7363095;19;20035;-67
2022/08/28 10:40:58;;;;;;;10.35;9.00;;;23.60;1.00;;;;;;7363226;19;20011;-67
2022/08/28 10:43:33;;;;;;;12.02;8.43;;;23.20;1.00;;;;;;7366988;19;20018;-67
2022/08/28 10:46:07;;;;;;;11.13;8.75;;;23.30;1.00;;;;;;7366433;19;20108;-67
2022/08/28 10:48:45;;;;;;;12.98;8.68;;;22.90;1.00;;;;;;7367385;19;20010;-68
2022/08/28 10:51:20;;;;;;;9.82;8.73;;;23.30;1.00;;;;;;7362944;19;20031;-67
2022/08/28 10:54:09;;;;;;;12.80;9.93;;;22.50;1.00;;;;;;7366246;19;20048;-67
2022/08/28 10:56:45;;;;;;;10.95;9.30;;;22.60;1.20;;;;;;7383388;19;20014;-67
2022/08/28 10:59:27;;;;;;;12.38;10.18;;;22.60;1.00;;;;;;7365388;19;20017;-66
2022/08/28 11:01:57;;;;;;;12.52;9.93;;;22.50;1.40;;;;;;7363883;19;20024;-66
2022/08/28 11:04:27;;;;;;;10.57;9.15;;;22.20;4.80;;;;;;7364838;19;20356;-66
2022/08/28 11:07:03;;;;;;;12.70;10.15;;;22.50;4.50;;;;;;7363755;19;20006;-67
2022/08/28 11:09:37;;;;;;;10.45;8.77;;;22.90;1.00;;;;;;7364540;19;20027;-66
2022/08/28 11:12:29;;;;;;;13.98;9.82;;;23.40;1.00;;;;;;7363953;19;20352;-66
2022/08/28 11:14:59;;;;;;;8.82;7.88;;;23.50;1.00;;;;;;7366549;19;20482;-68
2022/08/28 11:17:42;;;;;;;14.90;8.95;;;24.20;1.00;;;;;;7383040;19;20018;-67
2022/08/28 11:20:19;;;;;;;9.02;7.05;;;23.90;1.00;;;;;;7360568;19;20034;-67
2022/08/28 11:22:55;;;;;;;8.45;7.55;;;23.70;1.00;;;;;;7366483;19;20504;-68
2022/08/28 11:25:29;;;;;;;12.68;7.03;;;23.60;1.00;;;;;;7366669;19;20077;-68
2022/08/28 11:28:18;;;;;;;11.10;8.23;;;24.00;1.00;;;;;;7363605;19;20514;-66
2022/08/28 11:30:49;;;;;;;8.90;7.68;;;24.00;1.00;;;;;;7359547;19;20365;-68
2022/08/28 11:33:39;;;;;;;9.95;7.63;;;24.10;1.00;;;;;;7365384;19;21723;-67
2022/08/28 11:36:12;;;;;;;11.18;9.25;;;23.60;1.00;;;;;;7363637;19;20014;-66
2022/08/28 11:39:06;;;;;;;8.75;7.85;;;23.30;1.00;;;;;;7387388;19;20006;-66
2022/08/28 11:41:38;;;;;;;9.20;7.53;;;23.10;1.00;;;;;;7359740;19;21050;-67
2022/08/28 11:44:41;;;;;;;7.93;6.70;;;23.40;1.00;;;;;;7365541;19;20017;-67
2022/08/28 11:47:55;;;;;;;10.70;7.75;;;23.50;1.00;;;;;;7360481;19;20020;-67
2022/08/28 11:50:32;;;;;;;9.85;7.47;;;23.60;1.00;;;;;;7360652;19;20014;-67
2022/08/28 11:53:28;;;;;;;10.63;7.47;;;24.00;1.00;;;;;;7365180;19;20021;-67
2022/08/28 11:56:16;;;;;;;8.32;6.90;;;24.10;1.00;;;;;;7364843;19;20089;-66
2022/08/28 11:59:12;;;;;;;10.50;7.43;;;24.30;1.00;;;;;;7364372;19;20017;-66
2022/08/28 12:01:42;;;;;;;10.63;7.78;;;23.50;1.00;;;;;;7357556;19;20014;-66
2022/08/28 12:04:14;;;;;;;8.18;7.28;;;23.10;1.00;;;;;;7364443;19;20122;-66
2022/08/28 12:06:51;;;;;;;7.90;6.93;;;23.10;1.00;;;;;;7363127;19;20474;-66
2022/08/28 12:09:37;;;;;;;10.23;6.43;;;23.40;1.00;;;;;;7371289;19;20081;-66
2022/08/28 12:12:13;;;;;;;8.68;6.55;;;23.80;1.00;;;;;;7370714;19;20539;-66
2022/08/28 12:15:09;;;;;;;8.73;6.80;;;24.20;1.00;;;;;;7393841;19;20100;-66
2022/08/28 12:17:49;;;;;;;9.50;6.80;;;24.30;1.00;;;;;;7366060;19;20019;-67
2022/08/28 12:20:36;;;;;;;11.57;7.50;;;24.40;1.00;;;;;;7366568;19;20074;-67
2022/08/28 12:23:32;;;;;;;9.43;7.20;;;23.90;1.00;;;;;;7371239;19;20010;-67
2022/08/28 12:26:04;;;;;;;12.93;7.40;;;23.50;1.00;;;;;;7370927;19;20372;-65
2022/08/28 12:28:45;;;;;;;10.88;6.60;;;23.40;1.00;;;;;;7370426;19;20011;-66
2022/08/28 12:34:38;;;;;;;9.52;7.15;;;23.90;1.00;;;;;;7370522;19;20010;-66
2022/08/28 12:37:34;;;;;;;7.53;6.13;;;24.20;1.00;;;;;;7368242;19;20105;-66
2022/08/28 12:40:24;;;;;;;8.80;6.65;;;24.50;1.00;;;;;;7364291;19;20007;-66
2022/08/28 12:42:57;;;;;;;7.40;5.47;;;24.50;1.00;;;;;;7371660;19;20013;-66
2022/08/28 12:45:36;;;;;;;10.13;6.28;;;24.70;1.00;;;;;;7372114;19;20014;-67
2022/08/28 12:48:18;;;;;;;10.10;6.55;;;24.80;1.00;;;;;;7368502;19;20362;-67
2022/08/28 12:50:48;;;;;;;10.23;6.18;;;24.70;1.00;;;;;;7363099;19;20505;-65
2022/08/28 12:53:19;;;;;;;7.65;6.25;;;24.90;1.00;;;;;;7392434;19;20415;-65
2022/08/28 12:55:50;;;;;;;9.70;5.93;;;24.90;1.00;;;;;;7370090;19;20010;-66
2022/08/28 12:58:32;;;;;;;7.60;5.88;;;24.90;1.00;;;;;;7366688;19;20073;-67
2022/08/28 13:01:10;;;;;;;8.05;6.43;;;24.60;1.00;;;;;;7363713;19;20558;-67
2022/08/28 13:03:48;;;;;;;8.30;6.05;;;24.60;1.00;;;;;;7370845;19;20074;-67
2022/08/28 13:06:25;;;;;;;7.82;5.55;;;24.80;1.00;;;;;;7368317;19;20074;-67
2022/08/28 13:09:00;;;;;;;8.40;6.00;;;25.10;1.00;;;;;;7369472;19;20066;-66
2022/08/28 13:11:35;;;;;;;9.38;5.78;;;24.90;1.00;;;;;;7385285;19;20022;-67
2022/08/28 13:14:07;;;;;;;10.07;5.78;;;24.70;1.00;;;;;;7368523;19;20024;-67
2022/08/28 13:16:41;;;;;;;6.65;5.95;;;25.00;1.00;;;;;;7365989;19;20081;-66
2022/08/28 13:19:14;;;;;;;8.35;5.78;;;25.00;1.00;;;;;;7370352;19;20087;-66